createdAt,value
2022-11-20T00:01:42.107Z,16.00
2022-11-20T00:04:29.919Z,14.60
2022-11-20T00:07:17.702Z,16.70
2022-11-20T00:10:05.943Z,15.30
2022-11-20T00:12:53.484Z,15.40
2022-11-20T00:15:40.903Z,17.40
2022-11-20T00:18:29.137Z,15.60
2022-11-20T00:21:22.008Z,15.60
2022-11-20T00:24:11.635Z,14.80
2022-11-20T00:26:59.592Z,16.50
2022-11-20T00:29:47.615Z,15.70
2022-11-20T00:32:35.610Z,12.90
2022-11-20T00:35:23.075Z,12.00
2022-11-20T00:38:10.837Z,11.60
2022-11-20T00:41:00.660Z,12.40
2022-11-20T00:43:48.740Z,16.30
2022-11-20T00:46:36.698Z,15.80
2022-11-20T00:49:24.605Z,17.40
2022-11-20T00:52:12.201Z,17.60
2022-11-20T00:55:00.052Z,13.20
2022-11-20T00:57:47.490Z,16.90
2022-11-20T01:00:35.568Z,16.70
2022-11-20T01:03:27.021Z,14.10
2022-11-20T01:06:18.747Z,11.40
2022-11-20T01:09:15.739Z,16.00
2022-11-20T01:12:03.852Z,16.70
2022-11-20T01:14:51.620Z,15.60
2022-11-20T01:17:39.251Z,16.50
2022-11-20T01:20:26.950Z,17.30
2022-11-20T01:23:14.785Z,13.50
2022-11-20T01:26:05.893Z,17.70
2022-11-20T01:28:54.679Z,14.80
2022-11-20T01:31:43.299Z,13.30
2022-11-20T01:34:31.117Z,15.80
2022-11-20T01:37:18.622Z,13.60
2022-11-20T01:40:07.497Z,10.60
2022-11-20T01:43:24.361Z,15.50
2022-11-20T01:46:20.111Z,10.80
2022-11-20T01:50:14.257Z,13.70
2022-11-20T01:53:11.328Z,12.80
2022-11-20T01:56:02.875Z,15.00
2022-11-20T01:58:57.306Z,13.10
2022-11-20T02:01:45.146Z,12.00
2022-11-20T02:04:33.193Z,9.90
2022-11-20T02:07:21.297Z,12.30
2022-11-20T02:10:09.157Z,13.90
2022-11-20T02:13:16.381Z,13.20
2022-11-20T02:16:05.020Z,13.70
2022-11-20T02:18:55.982Z,12.70
2022-11-20T02:22:09.165Z,14.70
2022-11-20T02:24:59.378Z,13.80
2022-11-20T02:27:47.750Z,12.60
2022-11-20T02:30:35.803Z,14.00
2022-11-20T02:33:23.485Z,15.20
2022-11-20T02:36:15.392Z,13.10
2022-11-20T02:39:05.150Z,16.90
2022-11-20T02:41:55.121Z,16.80
2022-11-20T02:44:42.801Z,16.40
2022-11-20T02:47:30.462Z,15.90
2022-11-20T02:50:18.532Z,14.90
2022-11-20T02:53:05.918Z,15.10
2022-11-20T02:55:53.665Z,17.60
2022-11-20T02:58:41.541Z,17.10
2022-11-20T03:01:29.538Z,16.80
2022-11-20T03:04:17.187Z,16.80
2022-11-20T03:07:07.519Z,16.70
2022-11-20T03:09:55.638Z,16.00
2022-11-20T03:12:43.516Z,16.20
2022-11-20T03:15:31.377Z,16.40
2022-11-20T03:18:18.874Z,16.20
2022-11-20T03:21:07.751Z,16.40
2022-11-20T03:23:55.942Z,17.40
2022-11-20T03:26:43.511Z,16.80
2022-11-20T03:29:31.363Z,14.20
2022-11-20T03:32:19.113Z,11.40
2022-11-20T03:35:07.519Z,17.70
2022-11-20T03:37:54.997Z,16.30
2022-11-20T03:40:43.046Z,16.10
2022-11-20T03:43:31.283Z,15.50
2022-11-20T03:46:19.020Z,15.70
2022-11-20T03:49:07.081Z,16.40
2022-11-20T03:51:54.647Z,14.10
2022-11-20T03:54:42.329Z,16.70
2022-11-20T03:57:29.598Z,17.60
2022-11-20T04:00:17.498Z,16.90
2022-11-20T04:03:05.286Z,13.50
2022-11-20T04:05:53.107Z,12.20
2022-11-20T04:08:42.571Z,16.50
2022-11-20T04:11:33.942Z,17.70
2022-11-20T04:14:21.655Z,16.60
2022-11-20T04:17:09.472Z,16.70
2022-11-20T04:19:57.467Z,14.80
2022-11-20T04:22:45.280Z,13.00
2022-11-20T04:25:34.052Z,14.60
2022-11-20T04:28:21.920Z,13.80
2022-11-20T04:31:16.584Z,15.70
2022-11-20T04:34:07.480Z,15.50
2022-11-20T04:36:54.954Z,16.90
2022-11-20T04:39:42.592Z,17.90
2022-11-20T04:42:30.097Z,15.40
2022-11-20T04:45:18.036Z,14.40
2022-11-20T04:48:06.218Z,14.80
2022-11-20T04:50:54.699Z,14.50
2022-11-20T04:53:43.180Z,14.10
2022-11-20T04:56:30.946Z,16.10
2022-11-20T04:59:19.215Z,17.50
2022-11-20T05:02:07.340Z,16.80
2022-11-20T05:04:54.974Z,16.40
2022-11-20T05:07:42.911Z,15.00
2022-11-20T05:10:30.636Z,16.20
2022-11-20T05:13:18.380Z,15.30
2022-11-20T05:16:10.891Z,13.00
2022-11-20T05:18:58.346Z,13.60
2022-11-20T05:21:45.877Z,16.50
2022-11-20T05:24:33.480Z,16.40
2022-11-20T05:27:21.510Z,15.20
2022-11-20T05:30:10.627Z,10.40
2022-11-20T05:32:58.703Z,17.60
2022-11-20T05:35:46.366Z,16.20
2022-11-20T05:38:34.668Z,13.60
2022-11-20T05:41:22.506Z,12.50
2022-11-20T05:44:13.452Z,13.90
2022-11-20T05:47:01.258Z,12.80
2022-11-20T05:49:48.950Z,14.40
2022-11-20T05:52:37.502Z,9.40
2022-11-20T05:55:25.078Z,14.20
2022-11-20T05:58:12.862Z,11.20
2022-11-20T06:01:12.764Z,14.00
2022-11-20T06:04:00.412Z,12.10
2022-11-20T06:06:50.563Z,14.60
2022-11-20T06:09:38.755Z,10.00
2022-11-20T06:12:26.179Z,10.40
2022-11-20T06:15:14.226Z,12.70
2022-11-20T06:18:02.096Z,15.40
2022-11-20T06:20:49.819Z,11.20
2022-11-20T06:23:38.533Z,9.60
2022-11-20T06:26:28.910Z,13.70
2022-11-20T06:29:16.938Z,11.10
2022-11-20T06:32:04.973Z,15.70
2022-11-20T06:34:52.679Z,11.80
2022-11-20T06:37:40.202Z,12.80
2022-11-20T06:40:27.801Z,14.30
2022-11-20T06:43:15.535Z,12.80
2022-11-20T06:46:03.792Z,11.20
2022-11-20T06:48:52.206Z,12.40
2022-11-20T06:51:39.765Z,15.20
2022-11-20T06:54:27.206Z,14.60
2022-11-20T06:57:15.032Z,14.10
2022-11-20T07:00:02.462Z,14.80
2022-11-20T07:02:50.945Z,10.40
2022-11-20T07:05:39.607Z,13.40
2022-11-20T07:08:27.621Z,11.00
2022-11-20T07:11:15.326Z,13.70
2022-11-20T07:14:03.112Z,12.30
2022-11-20T07:16:50.968Z,13.80
2022-11-20T07:19:38.634Z,17.00
2022-11-20T07:22:27.809Z,16.10
2022-11-20T07:25:15.718Z,16.80
2022-11-20T07:28:04.787Z,16.20
2022-11-20T07:30:54.866Z,16.60
2022-11-20T07:33:43.100Z,16.10
2022-11-20T07:36:30.824Z,16.30
2022-11-20T07:39:18.710Z,15.30
2022-11-20T07:42:10.655Z,13.50
2022-11-20T07:44:58.907Z,12.70
2022-11-20T07:47:46.617Z,16.80
2022-11-20T07:50:34.325Z,17.60
2022-11-20T07:53:22.835Z,15.40
2022-11-20T07:56:10.737Z,17.10
2022-11-20T07:58:58.566Z,16.20
2022-11-20T08:01:46.116Z,14.90
2022-11-20T08:04:34.265Z,15.00
2022-11-20T08:07:22.004Z,17.10
2022-11-20T08:10:12.812Z,10.60
2022-11-20T08:13:18.976Z,16.00
2022-11-20T08:16:06.874Z,16.30
2022-11-20T08:18:54.731Z,13.10
2022-11-20T08:21:42.792Z,16.60
2022-11-20T08:24:30.505Z,14.60
2022-11-20T08:27:18.246Z,15.10
2022-11-20T08:30:07.260Z,15.70
2022-11-20T08:32:55.936Z,15.70
2022-11-20T08:35:43.973Z,13.00
2022-11-20T08:38:33.110Z,15.50
2022-11-20T08:41:32.745Z,17.70
2022-11-20T08:44:20.343Z,15.00
2022-11-20T08:47:08.195Z,17.50
2022-11-20T08:49:55.749Z,13.90
2022-11-20T08:52:43.676Z,15.70
2022-11-20T08:55:31.594Z,14.90
2022-11-20T08:58:19.066Z,15.50
2022-11-20T09:01:07.012Z,17.20
2022-11-20T09:03:58.114Z,16.00
2022-11-20T09:06:46.054Z,15.90
2022-11-20T09:09:34.034Z,16.20
2022-11-20T09:12:21.464Z,16.00
2022-11-20T09:15:09.572Z,15.60
2022-11-20T09:18:03.753Z,14.40
2022-11-20T09:20:52.474Z,17.50
2022-11-20T09:23:41.504Z,16.80
2022-11-20T09:26:29.587Z,17.80
2022-11-20T09:29:21.211Z,16.40
2022-11-20T09:32:09.104Z,16.70
2022-11-20T09:34:56.805Z,17.30
2022-11-20T09:37:45.603Z,16.00
2022-11-20T09:40:36.140Z,15.10
2022-11-20T09:43:45.956Z,16.20
2022-11-20T09:46:45.010Z,16.30
2022-11-20T09:50:16.104Z,17.20
2022-11-20T09:53:37.948Z,13.80
2022-11-20T09:56:27.050Z,16.80
2022-11-20T09:59:41.655Z,17.20
2022-11-20T10:02:42.213Z,12.90
2022-11-20T10:05:46.260Z,15.60
2022-11-20T10:08:46.126Z,13.00
2022-11-20T10:12:00.263Z,16.50
2022-11-20T10:15:25.423Z,15.40
2022-11-20T10:18:38.952Z,14.10
2022-11-20T10:21:48.619Z,12.00
2022-11-20T10:24:45.243Z,14.70
2022-11-20T10:27:41.971Z,13.90
2022-11-20T10:30:31.330Z,12.30
2022-11-20T10:33:24.597Z,16.40
2022-11-20T10:36:31.514Z,12.80
2022-11-20T10:39:22.249Z,11.70
2022-11-20T10:42:17.812Z,14.60
2022-11-20T10:45:43.297Z,15.70
2022-11-20T10:48:33.613Z,14.30
2022-11-20T10:51:45.796Z,14.90
2022-11-20T10:55:03.485Z,13.80
2022-11-20T10:58:26.553Z,13.10
2022-11-20T11:01:25.595Z,15.10
2022-11-20T11:04:44.251Z,14.30
2022-11-20T11:07:39.865Z,13.90
2022-11-20T11:10:59.007Z,16.00
2022-11-20T11:13:46.921Z,15.30
2022-11-20T11:16:34.815Z,16.10
2022-11-20T11:19:23.293Z,14.90
2022-11-20T11:22:19.151Z,14.70
2022-11-20T11:25:39.857Z,13.40
2022-11-20T11:28:29.545Z,16.20
2022-11-20T11:31:29.732Z,15.20
2022-11-20T11:34:18.640Z,15.40
2022-11-20T11:37:16.192Z,14.30
2022-11-20T11:43:43.777Z,15.70
2022-11-20T11:46:36.854Z,15.60
2022-11-20T11:49:24.917Z,14.90
2022-11-20T11:52:25.433Z,14.30
2022-11-20T11:55:41.760Z,13.70
2022-11-20T11:58:53.013Z,14.90
2022-11-20T12:01:50.132Z,15.80
2022-11-20T12:04:44.728Z,15.30
2022-11-20T12:07:51.849Z,15.60
2022-11-20T12:11:07.553Z,14.80
2022-11-20T12:14:25.149Z,15.90
2022-11-20T12:17:15.233Z,15.10
2022-11-20T12:20:03.694Z,13.60
2022-11-20T12:23:15.493Z,14.90
2022-11-20T12:26:16.688Z,15.10
2022-11-20T12:29:23.589Z,14.60
2022-11-20T12:32:19.676Z,12.30
2022-11-20T12:35:50.145Z,15.70
2022-11-20T12:38:53.608Z,15.40
2022-11-20T12:42:43.003Z,13.20
2022-11-20T12:46:00.082Z,15.30
2022-11-20T12:49:44.967Z,15.50
2022-11-20T12:53:01.009Z,12.10
2022-11-20T12:55:57.724Z,15.90
2022-11-20T12:59:14.699Z,18.70
2022-11-20T13:02:50.679Z,18.30
2022-11-20T13:06:05.808Z,18.00
2022-11-20T13:08:59.539Z,19.30
2022-11-20T13:12:09.207Z,17.60
2022-11-20T13:15:12.951Z,18.90
2022-11-20T13:18:07.276Z,22.70
2022-11-20T13:20:56.293Z,20.80
2022-11-20T13:23:44.082Z,20.20
2022-11-20T13:26:31.771Z,20.20
2022-11-20T13:29:20.712Z,21.30
2022-11-20T13:32:16.420Z,20.60
2022-11-20T13:35:06.611Z,21.10
2022-11-20T13:38:09.346Z,22.40
2022-11-20T13:41:21.954Z,22.50
2022-11-20T13:44:36.356Z,19.70
2022-11-20T13:47:28.066Z,22.90
2022-11-20T13:50:16.108Z,20.30
2022-11-20T13:53:07.788Z,22.30
2022-11-20T13:56:12.005Z,22.60
2022-11-20T13:59:51.374Z,22.70
2022-11-20T14:02:40.036Z,21.50
2022-11-20T14:05:29.444Z,22.20
2022-11-20T14:08:40.788Z,21.30
2022-11-20T14:11:32.813Z,19.60
2022-11-20T14:14:27.469Z,21.70
2022-11-20T14:17:26.286Z,20.00
2022-11-20T14:20:16.492Z,20.90
2022-11-20T14:23:06.200Z,20.70
2022-11-20T14:25:54.966Z,18.80
2022-11-20T14:28:43.067Z,18.30
2022-11-20T14:31:31.633Z,20.90
2022-11-20T14:34:30.186Z,20.40
2022-11-20T14:37:26.942Z,19.50
2022-11-20T14:40:38.807Z,17.90
2022-11-20T14:43:29.940Z,19.50
2022-11-20T14:46:18.902Z,19.00
2022-11-20T14:49:06.958Z,20.50
2022-11-20T14:52:03.884Z,20.50
2022-11-20T14:54:57.915Z,18.30
2022-11-20T14:57:56.543Z,17.00
2022-11-20T15:00:56.064Z,20.20
2022-11-20T15:03:43.759Z,19.80
2022-11-20T15:06:32.446Z,20.60
2022-11-20T15:09:20.634Z,20.10
2022-11-20T15:12:19.094Z,19.40
2022-11-20T15:15:11.852Z,21.30
2022-11-20T15:17:59.816Z,19.20
2022-11-20T15:20:47.530Z,20.00
2022-11-20T15:23:35.707Z,20.80
2022-11-20T15:26:29.049Z,20.80
2022-11-20T15:29:22.050Z,20.50
2022-11-20T15:32:13.584Z,22.30
2022-11-20T15:35:01.701Z,18.90
2022-11-20T15:37:49.548Z,22.30
2022-11-20T15:40:37.828Z,19.90
2022-11-20T15:43:26.006Z,22.80
2022-11-20T15:46:18.320Z,23.50
2022-11-20T15:49:07.758Z,21.10
2022-11-20T15:51:56.029Z,22.80
2022-11-20T15:54:43.932Z,23.20
2022-11-20T15:57:34.763Z,23.60
2022-11-20T16:00:23.864Z,18.60
2022-11-20T16:03:14.131Z,21.70
2022-11-20T16:06:01.998Z,19.40
2022-11-20T16:08:49.920Z,24.00
2022-11-20T16:11:38.477Z,23.40
2022-11-20T16:14:46.148Z,19.10
2022-11-20T16:17:43.511Z,23.20
2022-11-20T16:20:31.179Z,22.40
2022-11-20T16:23:19.285Z,22.70
2022-11-20T16:26:18.034Z,21.40
2022-11-20T16:29:08.139Z,21.50
2022-11-20T16:31:57.893Z,21.10
2022-11-20T16:34:47.443Z,22.40
2022-11-20T16:37:35.697Z,20.80
2022-11-20T16:40:24.562Z,20.10
2022-11-20T16:43:14.936Z,20.40
2022-11-20T16:46:09.671Z,23.00
2022-11-20T16:49:03.009Z,23.80
2022-11-20T16:51:51.971Z,21.80
2022-11-20T16:54:39.702Z,21.30
2022-11-20T16:57:33.047Z,22.90
2022-11-20T17:00:20.827Z,20.40
2022-11-20T17:03:08.898Z,24.20
2022-11-20T17:05:56.534Z,23.70
2022-11-20T17:08:45.796Z,24.00
2022-11-20T17:11:33.964Z,18.80
2022-11-20T17:14:21.892Z,22.20
2022-11-20T17:17:10.035Z,25.10
2022-11-20T17:19:57.646Z,20.90
2022-11-20T17:22:45.844Z,24.40
2022-11-20T17:25:34.603Z,23.00
2022-11-20T17:28:24.531Z,27.80
2022-11-20T17:31:16.343Z,22.00
2022-11-20T17:34:06.341Z,25.30
2022-11-20T17:36:55.555Z,24.70
2022-11-20T17:39:44.838Z,28.20
2022-11-20T17:42:36.888Z,26.40
2022-11-20T17:45:24.692Z,27.90
2022-11-20T17:48:13.074Z,24.20
2022-11-20T17:51:06.523Z,28.10
2022-11-20T17:54:00.820Z,27.30
2022-11-20T17:57:06.796Z,26.10
2022-11-20T17:59:54.706Z,25.80
2022-11-20T18:02:42.491Z,24.20
2022-11-20T18:05:33.741Z,20.20
2022-11-20T18:08:21.993Z,27.40
2022-11-20T18:11:15.473Z,24.40
2022-11-20T18:14:26.638Z,30.10
2022-11-20T18:17:15.991Z,25.20
2022-11-20T18:20:27.898Z,22.80
2022-11-20T18:23:13.183Z,30.60
2022-11-20T18:26:01.013Z,29.50
2022-11-20T18:28:48.628Z,26.10
2022-11-20T18:31:36.226Z,26.30
2022-11-20T18:34:24.334Z,25.00
2022-11-20T18:37:15.366Z,29.10
2022-11-20T18:40:04.434Z,27.40
2022-11-20T18:43:10.913Z,30.00
2022-11-20T18:46:05.142Z,27.40
2022-11-20T18:48:53.239Z,27.10
2022-11-20T18:51:44.359Z,28.10
2022-11-20T18:54:35.673Z,28.70
2022-11-20T18:57:27.200Z,27.50
2022-11-20T19:00:15.064Z,28.70
2022-11-20T19:03:08.272Z,25.10
2022-11-20T19:05:58.845Z,29.00
2022-11-20T19:08:47.221Z,25.00
2022-11-20T19:11:36.284Z,30.70
2022-11-20T19:14:23.957Z,28.10
2022-11-20T19:17:13.672Z,26.10
2022-11-20T19:20:01.362Z,26.50
2022-11-20T19:22:53.894Z,22.30
2022-11-20T19:25:43.795Z,23.80
2022-11-20T19:28:33.117Z,27.80
2022-11-20T19:31:27.125Z,29.30
2022-11-20T19:34:15.752Z,29.00
2022-11-20T19:37:03.637Z,31.40
2022-11-20T19:39:51.585Z,26.80
2022-11-20T19:42:39.756Z,27.30
2022-11-20T19:45:27.290Z,29.60
2022-11-20T19:48:14.793Z,24.60
2022-11-20T19:51:12.087Z,22.50
2022-11-20T19:54:01.246Z,19.70
2022-11-20T19:56:49.657Z,29.90
2022-11-20T19:59:42.547Z,30.40
2022-11-20T20:02:32.185Z,27.20
2022-11-20T20:05:19.909Z,23.10
2022-11-20T20:08:07.974Z,27.10
2022-11-20T20:10:59.374Z,24.40
2022-11-20T20:13:48.187Z,25.20
2022-11-20T20:16:36.285Z,19.60
2022-11-20T20:19:24.318Z,23.30
2022-11-20T20:22:12.138Z,22.50
2022-11-20T20:24:59.866Z,23.10
2022-11-20T20:27:47.716Z,27.10
2022-11-20T20:30:35.972Z,27.40
2022-11-20T20:33:24.380Z,25.70
2022-11-20T20:36:14.877Z,22.60
2022-11-20T20:39:05.124Z,25.40
2022-11-20T20:41:52.860Z,17.30
2022-11-20T20:44:59.572Z,22.90
2022-11-20T20:47:47.622Z,22.10
2022-11-20T20:50:35.776Z,19.10
2022-11-20T20:53:24.717Z,19.40
2022-11-20T20:56:12.794Z,20.10
2022-11-20T20:59:00.576Z,26.50
2022-11-20T21:01:48.581Z,26.00
2022-11-20T21:04:36.509Z,22.70
2022-11-20T21:07:24.255Z,23.30
2022-11-20T21:10:12.536Z,20.20
2022-11-20T21:13:00.361Z,21.70
2022-11-20T21:15:51.506Z,26.10
2022-11-20T21:18:39.153Z,24.30
2022-11-20T21:22:01.529Z,25.60
2022-11-20T21:24:49.210Z,23.20
2022-11-20T21:27:37.037Z,22.80
2022-11-20T21:30:25.231Z,23.60
2022-11-20T21:33:13.389Z,22.10
2022-11-20T21:36:03.145Z,21.50
2022-11-20T21:38:54.197Z,26.30
2022-11-20T21:41:42.627Z,18.40
2022-11-20T21:44:41.347Z,24.90
2022-11-20T21:47:29.916Z,19.70
2022-11-20T21:50:22.333Z,23.60
2022-11-20T21:53:10.293Z,21.70
2022-11-20T21:55:59.721Z,22.60
2022-11-20T21:58:48.142Z,21.10
2022-11-20T22:01:35.960Z,21.80
2022-11-20T22:04:24.768Z,20.50
2022-11-20T22:07:12.552Z,20.60
2022-11-20T22:10:00.230Z,18.20
2022-11-20T22:12:48.153Z,19.60
2022-11-20T22:15:59.327Z,19.60
2022-11-20T22:18:45.476Z,18.60
2022-11-20T22:21:34.198Z,17.70
2022-11-20T22:24:25.242Z,17.00
2022-11-20T22:27:13.486Z,17.50
2022-11-20T22:30:01.303Z,14.30
2022-11-20T22:32:49.036Z,15.20
2022-11-20T22:35:37.243Z,14.80
2022-11-20T22:38:29.365Z,16.90
2022-11-20T22:41:19.685Z,14.90
2022-11-20T22:44:08.837Z,14.00
2022-11-20T22:46:56.707Z,14.70
2022-11-20T22:49:44.506Z,12.80
2022-11-20T22:52:39.945Z,14.70
2022-11-20T22:55:27.924Z,14.90
2022-11-20T22:58:15.305Z,14.30
2022-11-20T23:01:32.253Z,16.20
2022-11-20T23:04:20.038Z,14.70
2022-11-20T23:07:08.406Z,13.90
2022-11-20T23:09:56.006Z,15.00
2022-11-20T23:12:43.494Z,15.20
2022-11-20T23:15:33.415Z,13.70
2022-11-20T23:18:21.319Z,11.20
2022-11-20T23:21:15.430Z,12.00
2022-11-20T23:24:04.190Z,15.70
2022-11-20T23:26:51.695Z,16.00
2022-11-20T23:29:39.225Z,16.50
2022-11-20T23:32:27.022Z,17.30
2022-11-20T23:35:15.224Z,16.00
2022-11-20T23:38:03.245Z,14.90
2022-11-20T23:40:52.415Z,12.60
2022-11-20T23:43:41.251Z,15.10
2022-11-20T23:46:29.475Z,15.30
2022-11-20T23:49:18.833Z,17.20
2022-11-20T23:52:07.642Z,16.20
2022-11-20T23:54:55.721Z,17.40
2022-11-20T23:57:45.618Z,15.10
